createdAt,value
2019-03-03T00:01:40.851Z,2.30
2019-03-03T00:04:11.320Z,2.20
2019-03-03T00:06:41.700Z,2.20
2019-03-03T00:09:12.302Z,2.20
2019-03-03T00:11:42.427Z,2.30
2019-03-03T00:14:12.502Z,2.30
2019-03-03T00:16:42.655Z,2.20
2019-03-03T00:19:12.819Z,2.30
2019-03-03T00:23:06.964Z,2.30
2019-03-03T00:25:37.175Z,2.20
2019-03-03T00:28:07.329Z,2.00
2019-03-03T00:30:47.858Z,1.90
2019-03-03T00:33:17.966Z,1.70
2019-03-03T00:35:48.078Z,1.50
2019-03-03T00:38:29.294Z,1.30
2019-03-03T00:41:09.352Z,1.20
2019-03-03T00:43:44.372Z,1.20
2019-03-03T00:46:19.458Z,1.30
2019-03-03T00:48:54.641Z,1.30
2019-03-03T00:51:32.532Z,1.40
2019-03-03T00:54:09.496Z,1.40
2019-03-03T00:56:46.855Z,1.40
2019-03-03T00:59:21.039Z,1.50
2019-03-03T01:01:58.083Z,1.50
2019-03-03T01:04:38.212Z,1.50
2019-03-03T01:07:16.337Z,1.60
2019-03-03T01:10:00.530Z,1.70
2019-03-03T01:12:37.423Z,1.70
2019-03-03T01:15:48.635Z,1.80
2019-03-03T01:18:23.671Z,1.80
2019-03-03T01:21:02.479Z,1.70
2019-03-03T01:23:42.515Z,1.80
2019-03-03T01:26:12.669Z,1.90
2019-03-03T01:28:42.766Z,1.90
2019-03-03T01:31:12.992Z,2.00
2019-03-03T01:33:43.117Z,2.00
2019-03-03T01:36:13.268Z,1.90
2019-03-03T01:38:43.379Z,1.80
2019-03-03T01:41:13.540Z,1.70
2019-03-03T01:43:43.679Z,1.60
2019-03-03T01:46:13.957Z,1.50
2019-03-03T01:48:44.057Z,1.50
2019-03-03T01:51:14.319Z,1.50
2019-03-03T01:53:44.443Z,1.50
2019-03-03T01:56:14.605Z,1.50
2019-03-03T01:58:44.721Z,1.50
2019-03-03T02:01:14.967Z,1.50
2019-03-03T02:03:45.087Z,1.50
2019-03-03T02:06:15.349Z,1.50
2019-03-03T02:08:45.513Z,1.50
2019-03-03T02:11:15.622Z,1.50
2019-03-03T02:13:45.892Z,1.60
2019-03-03T02:16:16.191Z,1.60
2019-03-03T02:18:46.356Z,1.60
2019-03-03T02:21:16.536Z,1.60
2019-03-03T02:23:46.773Z,1.60
2019-03-03T02:26:16.938Z,1.60
2019-03-03T02:28:47.044Z,1.70
2019-03-03T02:31:17.486Z,1.70
2019-03-03T02:33:47.660Z,1.70
2019-03-03T02:36:17.824Z,1.60
2019-03-03T02:38:47.927Z,1.60
2019-03-03T02:41:18.127Z,1.70
2019-03-03T02:43:48.250Z,1.60
2019-03-03T02:46:18.500Z,1.70
2019-03-03T02:48:48.617Z,1.70
2019-03-03T02:51:18.859Z,1.70
2019-03-03T02:53:48.916Z,1.80
2019-03-03T02:56:19.065Z,1.80
2019-03-03T02:58:49.110Z,1.70
2019-03-03T03:01:23.348Z,1.70
2019-03-03T03:03:53.487Z,1.80
2019-03-03T03:06:28.516Z,1.80
2019-03-03T03:09:03.532Z,1.80
2019-03-03T03:11:39.632Z,1.80
2019-03-03T03:14:16.543Z,1.80
2019-03-03T03:16:50.742Z,1.80
2019-03-03T03:19:36.846Z,1.80
2019-03-03T03:22:14.991Z,1.60
2019-03-03T03:24:56.205Z,1.50
2019-03-03T03:27:38.466Z,1.50
2019-03-03T03:30:13.757Z,1.40
2019-03-03T03:32:48.302Z,1.40
2019-03-03T03:35:27.353Z,1.40
2019-03-03T03:38:03.372Z,1.40
2019-03-03T03:40:39.375Z,1.50
2019-03-03T03:43:19.486Z,1.60
2019-03-03T03:47:57.213Z,1.70
2019-03-03T03:51:02.975Z,1.70
2019-03-03T03:53:48.133Z,1.80
2019-03-03T03:57:24.017Z,1.80
2019-03-03T03:59:59.089Z,1.90
2019-03-03T04:02:54.548Z,1.90
2019-03-03T04:05:35.586Z,2.00
2019-03-03T04:08:10.877Z,2.00
2019-03-03T04:10:53.041Z,2.10
2019-03-03T04:13:43.229Z,2.20
2019-03-03T04:16:20.220Z,2.20
2019-03-03T04:18:55.285Z,2.30
2019-03-03T04:23:38.815Z,2.30
2019-03-03T04:26:16.755Z,2.40
2019-03-03T04:29:22.136Z,2.30
2019-03-03T04:31:57.453Z,2.30
2019-03-03T04:34:32.570Z,2.40
2019-03-03T04:37:06.699Z,2.50
2019-03-03T04:39:38.794Z,2.60
2019-03-03T04:42:12.992Z,2.70
2019-03-03T04:44:48.079Z,2.80
2019-03-03T04:48:30.001Z,2.80
2019-03-03T04:51:09.071Z,2.90
2019-03-03T04:54:51.932Z,3.00
2019-03-03T04:57:27.007Z,3.00
2019-03-03T05:00:03.964Z,3.10
2019-03-03T05:02:49.127Z,3.10
2019-03-03T05:05:24.215Z,3.20
2019-03-03T05:08:01.307Z,3.20
2019-03-03T05:10:35.421Z,3.30
2019-03-03T05:13:09.595Z,3.30
2019-03-03T05:18:22.512Z,3.40
2019-03-03T05:20:53.219Z,3.40
2019-03-03T05:23:23.364Z,3.40
2019-03-03T05:25:53.479Z,3.30
2019-03-03T05:28:23.620Z,3.20
2019-03-03T05:30:53.695Z,3.20
2019-03-03T05:33:23.844Z,3.20
2019-03-03T05:35:53.938Z,3.20
2019-03-03T05:38:23.999Z,3.30
2019-03-03T05:40:54.120Z,3.30
2019-03-03T05:43:24.214Z,3.30
2019-03-03T05:45:54.295Z,3.40
2019-03-03T05:48:24.448Z,3.40
2019-03-03T05:50:54.554Z,3.40
2019-03-03T05:53:24.687Z,3.40
2019-03-03T05:55:54.782Z,3.40
2019-03-03T05:58:24.911Z,3.40
2019-03-03T06:00:55.036Z,3.40
2019-03-03T06:03:25.218Z,3.40
2019-03-03T06:05:55.315Z,3.40
2019-03-03T06:08:25.473Z,3.30
2019-03-03T06:10:55.491Z,3.30
2019-03-03T06:13:25.594Z,3.30
2019-03-03T06:15:55.689Z,3.30
2019-03-03T06:18:25.802Z,3.30
2019-03-03T06:20:55.916Z,3.30
2019-03-03T06:23:26.060Z,3.30
2019-03-03T06:25:56.151Z,3.30
2019-03-03T06:28:26.283Z,3.40
2019-03-03T06:30:56.403Z,3.40
2019-03-03T06:33:26.556Z,3.60
2019-03-03T06:35:56.675Z,3.60
2019-03-03T06:38:26.784Z,3.60
2019-03-03T06:40:56.905Z,3.70
2019-03-03T06:43:27.036Z,3.70
2019-03-03T06:45:57.157Z,3.80
2019-03-03T06:48:27.301Z,3.80
2019-03-03T06:50:57.432Z,3.90
2019-03-03T06:53:27.567Z,3.90
2019-03-03T06:55:57.967Z,4.00
2019-03-03T06:58:28.126Z,4.10
2019-03-03T07:00:58.178Z,4.20
2019-03-03T07:03:28.303Z,4.50
2019-03-03T07:05:58.323Z,4.90
2019-03-03T07:08:28.444Z,5.10
2019-03-03T07:10:58.526Z,5.20
2019-03-03T07:13:28.660Z,5.30
2019-03-03T07:15:58.721Z,5.30
2019-03-03T07:18:28.843Z,5.50
2019-03-03T07:20:59.019Z,5.60
2019-03-03T07:23:29.100Z,5.60
2019-03-03T07:25:59.225Z,5.70
2019-03-03T07:28:29.462Z,5.70
2019-03-03T07:30:59.576Z,5.70
2019-03-03T07:33:32.073Z,5.70
2019-03-03T07:36:02.252Z,5.70
2019-03-03T07:38:32.400Z,5.80
2019-03-03T07:41:02.553Z,6.00
2019-03-03T07:43:32.733Z,6.10
2019-03-03T07:46:02.873Z,6.20
2019-03-03T07:48:33.344Z,6.30
2019-03-03T07:51:03.446Z,6.50
2019-03-03T07:53:33.586Z,6.50
2019-03-03T07:56:04.005Z,6.60
2019-03-03T07:58:34.162Z,6.70
2019-03-03T08:01:04.387Z,6.80
2019-03-03T08:03:34.522Z,6.90
2019-03-03T08:06:04.643Z,7.00
2019-03-03T08:08:34.805Z,7.10
2019-03-03T08:11:05.073Z,7.30
2019-03-03T08:13:35.205Z,7.40
2019-03-03T08:16:05.325Z,7.40
2019-03-03T08:18:35.428Z,7.50
2019-03-03T08:21:05.581Z,7.70
2019-03-03T08:23:35.779Z,7.70
2019-03-03T08:26:05.885Z,8.00
2019-03-03T08:28:35.999Z,8.30
2019-03-03T08:31:06.195Z,8.40
2019-03-03T08:33:36.358Z,8.60
2019-03-03T08:36:06.495Z,8.80
2019-03-03T08:38:36.727Z,8.90
2019-03-03T08:41:06.871Z,9.00
2019-03-03T08:43:43.828Z,9.20
2019-03-03T08:46:23.941Z,9.30
2019-03-03T08:48:59.202Z,9.70
2019-03-03T08:51:34.412Z,9.80
2019-03-03T08:54:13.471Z,9.60
2019-03-03T08:58:51.819Z,9.50
2019-03-03T09:01:25.981Z,9.60
2019-03-03T09:04:05.063Z,9.50
2019-03-03T09:06:45.167Z,9.70
2019-03-03T09:09:20.200Z,9.50
2019-03-03T09:11:59.595Z,9.40
2019-03-03T09:14:34.606Z,9.50
2019-03-03T09:17:42.225Z,9.40
2019-03-03T09:20:23.246Z,9.50
2019-03-03T09:23:01.249Z,9.60
2019-03-03T09:27:40.466Z,9.50
2019-03-03T09:31:13.592Z,9.70
2019-03-03T09:33:49.506Z,9.80
2019-03-03T09:36:23.937Z,9.90
2019-03-03T09:39:01.957Z,9.90
2019-03-03T09:41:36.943Z,10.10
2019-03-03T09:44:19.986Z,10.20
2019-03-03T09:47:04.986Z,10.20
2019-03-03T09:50:37.728Z,10.20
2019-03-03T09:53:15.876Z,10.30
2019-03-03T09:55:53.935Z,10.40
2019-03-03T09:58:30.970Z,10.40
2019-03-03T10:02:03.539Z,10.60
2019-03-03T10:06:40.987Z,10.70
2019-03-03T10:09:18.113Z,10.80
2019-03-03T10:11:53.319Z,10.60
2019-03-03T10:14:27.543Z,10.80
2019-03-03T10:17:09.737Z,10.80
2019-03-03T10:19:47.968Z,10.80
2019-03-03T10:22:39.066Z,11.10
2019-03-03T10:25:15.842Z,11.20
2019-03-03T10:27:55.919Z,11.30
2019-03-03T10:31:29.723Z,11.30
2019-03-03T10:34:06.932Z,11.30
2019-03-03T10:36:47.844Z,11.20
2019-03-03T10:39:27.294Z,11.10
2019-03-03T10:43:01.954Z,11.20
2019-03-03T10:45:57.080Z,11.40
2019-03-03T10:49:29.848Z,11.50
2019-03-03T10:52:06.883Z,11.50
2019-03-03T10:54:49.022Z,11.60
2019-03-03T10:57:25.213Z,11.40
2019-03-03T11:00:01.255Z,11.40
2019-03-03T11:04:45.022Z,11.30
2019-03-03T11:07:25.191Z,11.40
2019-03-03T11:10:02.310Z,11.40
2019-03-03T11:12:40.516Z,11.30
2019-03-03T11:15:18.763Z,11.30
2019-03-03T11:17:58.252Z,11.30
2019-03-03T11:20:35.744Z,11.30
2019-03-03T11:23:18.625Z,11.30
2019-03-03T11:25:54.047Z,11.30
2019-03-03T11:28:37.321Z,11.30
2019-03-03T11:31:16.508Z,11.30
2019-03-03T11:34:27.171Z,11.30
2019-03-03T11:37:03.371Z,11.30
2019-03-03T11:39:39.557Z,11.30
2019-03-03T11:42:41.523Z,11.40
2019-03-03T11:45:17.991Z,11.40
2019-03-03T11:48:25.794Z,11.50
2019-03-03T11:51:02.295Z,11.60
2019-03-03T11:53:45.671Z,11.50
2019-03-03T11:56:21.048Z,11.50
2019-03-03T11:58:58.426Z,11.40
2019-03-03T12:01:34.108Z,11.40
2019-03-03T12:04:12.350Z,11.50
2019-03-03T12:07:17.934Z,11.70
2019-03-03T12:09:52.988Z,11.70
2019-03-03T12:12:28.254Z,11.80
2019-03-03T12:15:06.643Z,12.10
2019-03-03T12:17:44.117Z,12.30
2019-03-03T12:20:19.660Z,12.20
2019-03-03T12:25:03.027Z,12.20
2019-03-03T12:27:56.623Z,12.20
2019-03-03T12:31:02.941Z,12.30
2019-03-03T12:33:52.516Z,12.20
2019-03-03T12:37:33.803Z,11.90
2019-03-03T12:40:34.540Z,11.80
2019-03-03T12:43:11.930Z,11.60
2019-03-03T12:45:53.415Z,11.60
2019-03-03T12:51:22.123Z,11.50
2019-03-03T12:54:01.333Z,11.50
2019-03-03T12:56:36.450Z,11.50
2019-03-03T12:59:11.833Z,11.40
2019-03-03T13:01:51.168Z,11.40
2019-03-03T13:04:32.449Z,11.50
2019-03-03T13:07:39.023Z,11.50
2019-03-03T13:10:20.816Z,11.60
2019-03-03T13:13:03.072Z,11.60
2019-03-03T13:16:12.766Z,11.70
2019-03-03T13:19:02.449Z,11.80
2019-03-03T13:21:49.881Z,11.80
2019-03-03T13:27:57.232Z,11.80
2019-03-03T13:30:42.111Z,11.90
2019-03-03T13:35:21.188Z,11.80
2019-03-03T13:37:58.478Z,11.70
2019-03-03T13:40:34.921Z,11.60
2019-03-03T13:45:35.967Z,11.60
2019-03-03T13:50:36.226Z,11.60
2019-03-03T13:53:06.831Z,11.50
2019-03-03T13:55:37.267Z,11.50
2019-03-03T13:58:07.928Z,11.50
2019-03-03T14:00:38.514Z,11.40
2019-03-03T14:03:09.089Z,11.40
2019-03-03T14:05:39.671Z,11.30
2019-03-03T14:08:10.364Z,11.30
2019-03-03T14:10:40.804Z,11.30
2019-03-03T14:19:52.476Z,11.20
2019-03-03T14:22:22.943Z,11.30
2019-03-03T14:24:54.379Z,11.30
2019-03-03T14:27:26.340Z,11.30
2019-03-03T14:29:56.678Z,11.20
2019-03-03T14:32:28.181Z,11.20
2019-03-03T14:34:58.614Z,11.20
2019-03-03T14:37:28.959Z,11.20
2019-03-03T14:42:29.092Z,11.10
2019-03-03T14:44:59.435Z,11.10
2019-03-03T14:47:30.218Z,11.10
2019-03-03T14:50:00.642Z,11.00
2019-03-03T14:52:31.087Z,11.00
2019-03-03T14:57:31.273Z,11.00
2019-03-03T15:00:01.803Z,11.00
2019-03-03T15:02:32.387Z,10.90
2019-03-03T15:05:02.787Z,11.00
2019-03-03T15:07:33.279Z,10.90
2019-03-03T15:10:03.950Z,10.90
2019-03-03T15:12:34.336Z,10.80
2019-03-03T15:15:05.280Z,10.80
2019-03-03T15:21:10.616Z,10.80
2019-03-03T15:23:41.178Z,10.80
2019-03-03T15:26:11.935Z,10.70
2019-03-03T15:28:42.850Z,10.70
2019-03-03T15:31:13.589Z,10.70
2019-03-03T15:33:43.867Z,10.60
2019-03-03T15:36:14.378Z,10.60
2019-03-03T15:38:45.764Z,10.60
2019-03-03T15:41:16.279Z,10.50
2019-03-03T15:43:46.580Z,10.50
2019-03-03T15:46:16.855Z,10.50
2019-03-03T15:48:47.276Z,10.50
2019-03-03T15:51:17.860Z,10.50
2019-03-03T15:53:48.334Z,10.50
2019-03-03T15:56:18.621Z,10.40
2019-03-03T15:58:55.680Z,10.40
2019-03-03T16:01:20.011Z,10.40
2019-03-03T16:03:50.556Z,10.40
2019-03-03T16:06:21.242Z,10.30
2019-03-03T16:12:20.018Z,10.30
2019-03-03T16:14:50.609Z,10.20
2019-03-03T16:19:50.864Z,10.20
2019-03-03T16:22:22.435Z,10.20
2019-03-03T16:25:51.286Z,10.20
2019-03-03T16:28:21.822Z,10.20
2019-03-03T16:30:52.178Z,10.20
2019-03-03T16:33:22.718Z,10.10
2019-03-03T16:35:53.201Z,10.10
2019-03-03T16:38:23.720Z,10.10
2019-03-03T16:40:54.138Z,10.10
2019-03-03T16:45:54.359Z,10.10
2019-03-03T16:48:24.741Z,10.00
2019-03-03T16:50:55.335Z,9.90
2019-03-03T16:55:55.795Z,9.60
2019-03-03T16:58:26.155Z,9.50
2019-03-03T17:00:56.834Z,9.40
2019-03-03T17:03:27.410Z,9.40
2019-03-03T17:05:57.947Z,9.30
2019-03-03T17:08:28.397Z,9.30
2019-03-03T17:10:58.931Z,9.30
2019-03-03T17:13:29.403Z,9.30
2019-03-03T17:16:00.147Z,9.20
2019-03-03T17:18:30.676Z,9.10
2019-03-03T17:21:02.574Z,9.10
2019-03-03T17:23:41.333Z,9.00
2019-03-03T17:26:11.703Z,9.00
2019-03-03T17:28:42.118Z,9.00
2019-03-03T17:31:12.919Z,8.90
2019-03-03T17:33:43.352Z,8.80
2019-03-03T17:38:43.417Z,8.70
2019-03-03T17:41:14.554Z,8.70
2019-03-03T17:43:45.187Z,8.70
2019-03-03T17:46:15.716Z,8.70
2019-03-03T17:48:46.251Z,8.70
2019-03-03T17:51:16.676Z,8.70
2019-03-03T17:53:46.975Z,8.70
2019-03-03T17:56:17.483Z,8.70
2019-03-03T17:58:48.149Z,8.60
2019-03-03T18:01:18.477Z,8.70
2019-03-03T18:03:49.271Z,8.70
2019-03-03T18:06:19.771Z,8.70
2019-03-03T18:08:50.243Z,8.70
2019-03-03T18:11:20.800Z,8.60
2019-03-03T18:13:51.330Z,8.60
2019-03-03T18:16:21.984Z,8.70
2019-03-03T18:18:52.521Z,8.60
2019-03-03T18:21:22.987Z,8.70
2019-03-03T18:23:53.381Z,8.70
2019-03-03T18:26:23.839Z,8.70
2019-03-03T18:28:54.431Z,8.70
2019-03-03T18:31:25.026Z,8.70
2019-03-03T18:37:24.868Z,8.80
2019-03-03T18:39:55.162Z,8.80
2019-03-03T18:42:25.780Z,8.80
2019-03-03T18:44:56.703Z,8.70
2019-03-03T18:47:27.484Z,8.70
2019-03-03T18:54:10.587Z,8.60
2019-03-03T18:56:41.908Z,8.80
2019-03-03T18:59:12.330Z,8.70
2019-03-03T19:01:43.239Z,8.80
2019-03-03T19:04:14.335Z,8.80
2019-03-03T19:06:45.231Z,8.80
2019-03-03T19:09:19.034Z,8.80
2019-03-03T19:11:49.478Z,8.90
2019-03-03T19:14:28.022Z,8.90
2019-03-03T19:16:50.419Z,8.90
2019-03-03T19:19:21.049Z,8.90
2019-03-03T19:25:26.068Z,9.10
2019-03-03T19:27:56.695Z,9.00
2019-03-03T19:30:27.266Z,9.10
2019-03-03T19:33:02.466Z,9.10
2019-03-03T19:35:33.471Z,9.10
2019-03-03T19:38:04.246Z,9.10
2019-03-03T19:40:34.942Z,9.20
2019-03-03T19:43:06.164Z,9.10
2019-03-03T19:45:37.130Z,9.20
2019-03-03T19:48:08.347Z,9.10
2019-03-03T19:50:38.942Z,9.20
2019-03-03T19:55:40.460Z,9.20
2019-03-03T19:58:11.660Z,9.20
2019-03-03T20:04:35.427Z,9.20
2019-03-03T20:07:06.025Z,9.20
2019-03-03T20:09:36.507Z,9.20
2019-03-03T20:12:06.663Z,9.20
2019-03-03T20:14:37.251Z,9.20
2019-03-03T20:17:07.824Z,9.20
2019-03-03T20:19:38.579Z,9.30
2019-03-03T20:22:08.991Z,9.20
2019-03-03T20:24:39.514Z,9.20
2019-03-03T20:27:09.911Z,9.20
2019-03-03T20:29:40.202Z,9.20
2019-03-03T20:32:10.823Z,9.20
2019-03-03T20:34:41.375Z,9.20
2019-03-03T20:37:12.054Z,9.20
2019-03-03T20:39:42.578Z,9.20
2019-03-03T20:42:13.228Z,9.20
2019-03-03T20:44:53.427Z,9.20
2019-03-03T20:47:23.839Z,9.20
2019-03-03T20:49:54.318Z,9.20
2019-03-03T20:52:24.568Z,9.10
2019-03-03T20:54:55.038Z,9.20
2019-03-03T20:59:54.883Z,9.10
2019-03-03T21:02:25.079Z,9.10
2019-03-03T21:04:55.202Z,9.10
2019-03-03T21:07:25.292Z,9.10
2019-03-03T21:09:55.420Z,9.10
2019-03-03T21:12:25.849Z,9.10
2019-03-03T21:14:56.331Z,9.20
2019-03-03T21:17:26.655Z,9.10
2019-03-03T21:19:57.212Z,9.10
2019-03-03T21:22:27.842Z,9.10
2019-03-03T21:24:58.303Z,9.10
2019-03-03T21:27:28.714Z,9.10
2019-03-03T21:29:59.210Z,9.10
2019-03-03T21:32:29.458Z,9.10
2019-03-03T21:35:00.209Z,9.10
2019-03-03T21:37:30.681Z,9.00
2019-03-03T21:40:01.442Z,9.10
2019-03-03T21:42:31.908Z,9.00
2019-03-03T21:45:02.523Z,9.00
2019-03-03T21:47:32.621Z,9.00
2019-03-03T21:50:03.125Z,9.00
2019-03-03T21:52:33.522Z,9.10
2019-03-03T21:55:04.025Z,9.00
2019-03-03T21:57:35.410Z,9.10
2019-03-03T22:00:07.142Z,9.00
2019-03-03T22:02:37.364Z,9.10
2019-03-03T22:05:07.807Z,9.10
2019-03-03T22:10:08.076Z,9.00
2019-03-03T22:12:38.351Z,9.00
2019-03-03T22:15:08.896Z,9.00
2019-03-03T22:17:39.394Z,9.00
2019-03-03T22:20:11.230Z,9.00
2019-03-03T22:22:41.656Z,9.10
2019-03-03T22:25:12.413Z,9.10
2019-03-03T22:27:42.895Z,9.10
2019-03-03T22:30:13.543Z,9.10
2019-03-03T22:32:44.129Z,9.00
2019-03-03T22:35:14.510Z,9.00
2019-03-03T22:37:45.086Z,9.00
2019-03-03T22:40:15.595Z,9.00
2019-03-03T22:42:45.722Z,8.90
2019-03-03T22:45:16.037Z,8.80
2019-03-03T22:47:46.190Z,8.80
2019-03-03T22:50:16.511Z,8.70
2019-03-03T22:52:46.652Z,8.70
2019-03-03T22:55:16.877Z,8.70
2019-03-03T22:57:47.068Z,8.60
2019-03-03T23:01:27.011Z,8.50
2019-03-03T23:04:10.734Z,8.60
2019-03-03T23:06:47.218Z,8.50
2019-03-03T23:09:29.663Z,8.50
2019-03-03T23:12:11.886Z,8.50
2019-03-03T23:14:53.761Z,8.50
2019-03-03T23:17:37.192Z,8.50
2019-03-03T23:20:24.412Z,8.40
2019-03-03T23:24:07.074Z,8.40
2019-03-03T23:26:37.419Z,8.50
2019-03-03T23:29:07.887Z,8.30
2019-03-03T23:31:38.412Z,8.30
2019-03-03T23:34:08.941Z,8.30
2019-03-03T23:36:39.447Z,8.30
2019-03-03T23:39:09.813Z,8.20
2019-03-03T23:41:40.322Z,8.20
2019-03-03T23:44:10.835Z,8.30
2019-03-03T23:46:41.443Z,8.30
2019-03-03T23:49:11.894Z,8.30
2019-03-03T23:51:42.234Z,8.30
2019-03-03T23:54:12.931Z,8.20
2019-03-03T23:56:43.355Z,8.20
2019-03-03T23:59:13.855Z,8.10
